createdAt,value
2022-11-27T00:01:33.649Z,96202.50
2022-11-27T00:04:00.392Z,96218.28
2022-11-27T00:06:28.989Z,96214.97
2022-11-27T00:08:57.823Z,96217.69
2022-11-27T00:11:26.113Z,96214.06
2022-11-27T00:13:53.191Z,96227.25
2022-11-27T00:16:21.524Z,96229.38
2022-11-27T00:18:48.853Z,96228.47
2022-11-27T00:21:22.492Z,96224.53
2022-11-27T00:23:49.660Z,96231.47
2022-11-27T00:26:16.291Z,96231.47
2022-11-27T00:28:43.320Z,96216.94
2022-11-27T00:31:16.190Z,96214.34
2022-11-27T00:33:42.862Z,96218.47
2022-11-27T00:36:10.128Z,96203.41
2022-11-27T00:38:39.162Z,96195.84
2022-11-27T00:41:11.368Z,96197.22
2022-11-27T00:43:44.247Z,96188.84
2022-11-27T00:46:25.365Z,96179.59
2022-11-27T00:48:55.057Z,96186.31
2022-11-27T00:51:23.640Z,96183.69
2022-11-27T00:53:50.752Z,96185.47
2022-11-27T00:56:23.542Z,96172.09
2022-11-27T00:58:50.997Z,96170.28
2022-11-27T01:01:27.478Z,96166.69
2022-11-27T01:03:56.200Z,96173.56
2022-11-27T01:06:22.888Z,96172.13
2022-11-27T01:08:49.522Z,96169.66
2022-11-27T01:11:19.783Z,96159.78
2022-11-27T01:13:47.129Z,96167.97
2022-11-27T01:16:17.270Z,96174.59
2022-11-27T01:18:45.648Z,96169.53
2022-11-27T01:21:13.238Z,96168.94
2022-11-27T01:23:40.134Z,96169.22
2022-11-27T01:26:08.898Z,96165.00
2022-11-27T01:28:35.892Z,96163.25
2022-11-27T01:31:14.651Z,96156.56
2022-11-27T01:33:41.268Z,96155.63
2022-11-27T01:36:08.922Z,96154.53
2022-11-27T01:38:35.972Z,96151.56
2022-11-27T01:41:04.249Z,96144.38
2022-11-27T01:43:50.288Z,96145.41
2022-11-27T01:46:32.364Z,96139.06
2022-11-27T01:49:09.412Z,96142.38
2022-11-27T01:51:39.757Z,96141.28
2022-11-27T01:54:07.776Z,96133.53
2022-11-27T01:56:35.326Z,96135.28
2022-11-27T01:59:03.426Z,96132.78
2022-11-27T02:01:30.116Z,96134.50
2022-11-27T02:04:00.562Z,96131.00
2022-11-27T02:06:27.938Z,96134.50
2022-11-27T02:08:56.029Z,96135.31
2022-11-27T02:11:46.826Z,96128.88
2022-11-27T02:14:54.899Z,96130.72
2022-11-27T02:17:30.230Z,96127.53
2022-11-27T02:20:27.465Z,96122.88
2022-11-27T02:23:24.851Z,96114.81
2022-11-27T02:26:19.467Z,96114.06
2022-11-27T02:29:08.355Z,96109.97
2022-11-27T02:31:41.056Z,96105.88
2022-11-27T02:34:30.561Z,96094.97
2022-11-27T02:37:13.710Z,96091.47
2022-11-27T02:39:55.454Z,96086.50
2022-11-27T02:42:22.590Z,96094.25
2022-11-27T02:44:57.099Z,96086.72
2022-11-27T02:47:24.219Z,96082.69
2022-11-27T02:49:52.937Z,96079.44
2022-11-27T02:52:20.418Z,96084.34
2022-11-27T02:54:50.041Z,96073.00
2022-11-27T02:57:19.901Z,96068.28
2022-11-27T02:59:48.506Z,96066.13
2022-11-27T03:02:20.658Z,96056.88
2022-11-27T03:04:53.820Z,96058.31
2022-11-27T03:07:45.795Z,96055.81
2022-11-27T03:10:20.802Z,96052.44
2022-11-27T03:12:48.819Z,96054.72
2022-11-27T03:15:15.589Z,96041.91
2022-11-27T03:18:06.726Z,96035.25
2022-11-27T03:20:39.081Z,96031.09
2022-11-27T03:23:05.685Z,96027.59
2022-11-27T03:25:32.588Z,96029.34
2022-11-27T03:28:03.081Z,96024.41
2022-11-27T03:30:29.853Z,96023.47
2022-11-27T03:32:56.649Z,96024.34
2022-11-27T03:35:25.739Z,96024.94
2022-11-27T03:37:53.093Z,96029.91
2022-11-27T03:40:22.929Z,96033.81
2022-11-27T03:43:09.764Z,96032.19
2022-11-27T03:46:05.916Z,96033.56
2022-11-27T03:48:38.241Z,96032.78
2022-11-27T03:51:17.885Z,96030.91
2022-11-27T03:53:54.940Z,96029.72
2022-11-27T03:56:56.025Z,96024.56
2022-11-27T03:59:30.183Z,96027.44
2022-11-27T04:01:56.949Z,96019.03
2022-11-27T04:04:23.651Z,96018.00
2022-11-27T04:06:50.289Z,96017.84
2022-11-27T04:09:16.986Z,96019.53
2022-11-27T04:11:43.572Z,96014.34
2022-11-27T04:14:10.176Z,96018.38
2022-11-27T04:16:36.941Z,96012.34
2022-11-27T04:19:04.170Z,96016.63
2022-11-27T04:21:30.733Z,96012.75
2022-11-27T04:23:57.335Z,96013.47
2022-11-27T04:26:24.652Z,96003.06
2022-11-27T04:28:51.252Z,96005.03
2022-11-27T04:31:18.116Z,96008.56
2022-11-27T04:33:44.763Z,96005.38
2022-11-27T04:36:11.305Z,96010.75
2022-11-27T04:38:37.913Z,96013.50
2022-11-27T04:41:04.693Z,96012.94
2022-11-27T04:43:31.275Z,96015.59
2022-11-27T04:45:57.844Z,96021.41
2022-11-27T04:48:24.446Z,96024.22
2022-11-27T04:50:50.980Z,96020.19
2022-11-27T04:53:17.547Z,96033.06
2022-11-27T04:55:44.140Z,96023.78
2022-11-27T04:58:10.694Z,96031.16
2022-11-27T05:00:37.391Z,96016.66
2022-11-27T05:03:04.090Z,96017.41
2022-11-27T05:05:30.787Z,96021.72
2022-11-27T05:07:57.503Z,96011.31
2022-11-27T05:10:24.211Z,96003.75
2022-11-27T05:12:51.017Z,96006.38
2022-11-27T05:15:17.616Z,96018.38
2022-11-27T05:17:44.171Z,96016.63
2022-11-27T05:20:11.101Z,96018.31
2022-11-27T05:22:37.730Z,96021.09
2022-11-27T05:25:04.543Z,96021.28
2022-11-27T05:27:31.190Z,96022.38
2022-11-27T05:29:58.035Z,96019.44
2022-11-27T05:32:25.052Z,96023.34
2022-11-27T05:34:51.655Z,96018.28
2022-11-27T05:37:20.011Z,96021.13
2022-11-27T05:39:47.212Z,96026.53
2022-11-27T05:42:13.858Z,96021.69
2022-11-27T05:44:40.698Z,96022.72
2022-11-27T05:47:07.651Z,96012.59
2022-11-27T05:49:34.443Z,96011.66
2022-11-27T05:52:00.998Z,96008.91
2022-11-27T05:54:27.633Z,96004.59
2022-11-27T05:56:54.195Z,96018.06
2022-11-27T05:59:20.863Z,96016.19
2022-11-27T06:01:49.245Z,96012.69
2022-11-27T06:04:15.927Z,96012.41
2022-11-27T06:06:42.468Z,96010.09
2022-11-27T06:09:12.774Z,96006.03
2022-11-27T06:11:40.927Z,96009.34
2022-11-27T06:14:08.999Z,96004.75
2022-11-27T06:16:35.698Z,96002.09
2022-11-27T06:19:02.334Z,96001.84
2022-11-27T06:21:28.923Z,95993.16
2022-11-27T06:23:57.048Z,95997.13
2022-11-27T06:26:26.890Z,95998.53
2022-11-27T06:28:55.158Z,95988.28
2022-11-27T06:31:25.356Z,95990.84
2022-11-27T06:33:53.520Z,95987.50
2022-11-27T06:36:22.587Z,95981.81
2022-11-27T06:38:49.497Z,95992.03
2022-11-27T06:41:18.913Z,95979.94
2022-11-27T06:43:46.695Z,95986.66
2022-11-27T06:46:16.111Z,95984.44
2022-11-27T06:48:44.153Z,95976.03
2022-11-27T06:51:13.235Z,95972.63
2022-11-27T06:53:40.682Z,95971.75
2022-11-27T06:56:09.791Z,95976.88
2022-11-27T06:58:37.305Z,95980.00
2022-11-27T07:01:06.947Z,95974.09
2022-11-27T07:03:34.079Z,95974.09
2022-11-27T07:06:01.981Z,95969.09
2022-11-27T07:08:28.863Z,95958.13
2022-11-27T07:11:05.005Z,95959.97
2022-11-27T07:13:31.921Z,95965.16
2022-11-27T07:16:07.431Z,95956.91
2022-11-27T07:18:39.883Z,95958.78
2022-11-27T07:21:06.539Z,95958.22
2022-11-27T07:23:33.332Z,95958.59
2022-11-27T07:26:30.995Z,95956.16
2022-11-27T07:28:57.990Z,95968.22
2022-11-27T07:31:28.233Z,95952.03
2022-11-27T07:33:55.573Z,95963.38
2022-11-27T07:36:24.750Z,95958.50
2022-11-27T07:38:51.802Z,95960.41
2022-11-27T07:41:18.825Z,95961.06
2022-11-27T07:43:46.509Z,95957.44
2022-11-27T07:46:14.420Z,95951.34
2022-11-27T07:48:41.033Z,95945.81
2022-11-27T07:51:09.367Z,95944.59
2022-11-27T07:53:38.199Z,95952.47
2022-11-27T07:56:06.590Z,95945.44
2022-11-27T07:58:33.946Z,95952.06
2022-11-27T08:01:00.691Z,95944.81
2022-11-27T08:03:27.483Z,95940.44
2022-11-27T08:05:54.079Z,95943.31
2022-11-27T08:08:20.705Z,95952.03
2022-11-27T08:10:47.307Z,95940.78
2022-11-27T08:13:13.877Z,95940.78
2022-11-27T08:15:40.432Z,95939.34
2022-11-27T08:18:07.068Z,95939.88
2022-11-27T08:20:33.766Z,95937.03
2022-11-27T08:23:02.984Z,95930.00
2022-11-27T08:25:30.249Z,95936.72
2022-11-27T08:27:56.937Z,95937.47
2022-11-27T08:30:23.782Z,95932.84
2022-11-27T08:32:50.797Z,95932.03
2022-11-27T08:35:17.611Z,95929.47
2022-11-27T08:37:44.364Z,95922.13
2022-11-27T08:40:11.384Z,95923.31
2022-11-27T08:42:37.972Z,95923.53
2022-11-27T08:45:04.765Z,95922.84
2022-11-27T08:47:32.518Z,95926.50
2022-11-27T08:49:59.102Z,95925.47
2022-11-27T08:52:26.434Z,95919.19
2022-11-27T08:54:57.327Z,95923.97
2022-11-27T08:57:24.514Z,95919.38
2022-11-27T08:59:51.156Z,95926.47
2022-11-27T09:02:17.697Z,95929.50
2022-11-27T09:04:44.379Z,95923.84
2022-11-27T09:07:14.278Z,95919.19
2022-11-27T09:09:41.279Z,95920.44
2022-11-27T09:12:07.932Z,95922.06
2022-11-27T09:14:34.486Z,95920.84
2022-11-27T09:17:01.080Z,95919.28
2022-11-27T09:19:27.732Z,95913.94
2022-11-27T09:21:54.260Z,95913.19
2022-11-27T09:24:20.811Z,95909.88
2022-11-27T09:26:47.457Z,95897.78
2022-11-27T09:29:14.233Z,95898.34
2022-11-27T09:31:40.854Z,95886.63
2022-11-27T09:34:07.553Z,95888.97
2022-11-27T09:36:34.194Z,95887.13
2022-11-27T09:39:00.839Z,95886.47
2022-11-27T09:41:39.689Z,95887.63
2022-11-27T09:44:30.232Z,95873.34
2022-11-27T09:47:01.514Z,95870.69
2022-11-27T09:49:44.174Z,95876.91
2022-11-27T09:52:18.273Z,95865.31
2022-11-27T09:55:00.430Z,95861.56
2022-11-27T09:57:32.721Z,95852.84
2022-11-27T10:00:04.325Z,95851.22
2022-11-27T10:02:33.479Z,95851.19
2022-11-27T10:05:13.722Z,95847.16
2022-11-27T10:07:54.474Z,95843.34
2022-11-27T10:10:29.050Z,95844.72
2022-11-27T10:13:07.865Z,95840.00
2022-11-27T10:15:37.462Z,95831.94
2022-11-27T10:18:22.872Z,95822.19
2022-11-27T10:20:54.327Z,95821.06
2022-11-27T10:23:44.464Z,95819.72
2022-11-27T10:26:22.700Z,95809.47
2022-11-27T10:29:00.835Z,95811.84
2022-11-27T10:31:43.045Z,95816.56
2022-11-27T10:34:31.490Z,95815.56
2022-11-27T10:37:05.658Z,95806.28
2022-11-27T10:39:45.530Z,95806.91
2022-11-27T10:42:18.766Z,95800.81
2022-11-27T10:44:51.782Z,95802.59
2022-11-27T10:47:22.889Z,95797.44
2022-11-27T10:49:49.530Z,95800.28
2022-11-27T10:52:19.304Z,95790.06
2022-11-27T10:54:53.258Z,95787.41
2022-11-27T10:57:34.742Z,95783.06
2022-11-27T11:00:07.669Z,95776.44
2022-11-27T11:02:38.594Z,95767.03
2022-11-27T11:05:35.099Z,95768.38
2022-11-27T11:08:17.778Z,95776.38
2022-11-27T11:10:50.384Z,95774.06
2022-11-27T11:13:23.810Z,95772.84
2022-11-27T11:16:03.948Z,95767.66
2022-11-27T11:18:32.698Z,95774.41
2022-11-27T11:21:02.300Z,95769.22
2022-11-27T11:23:35.541Z,95760.66
2022-11-27T11:26:07.287Z,95761.34
2022-11-27T11:28:41.518Z,95756.28
2022-11-27T11:31:14.700Z,95761.09
2022-11-27T11:33:52.471Z,95759.94
2022-11-27T11:36:19.389Z,95755.97
2022-11-27T11:38:47.580Z,95757.31
2022-11-27T11:41:17.884Z,95751.53
2022-11-27T11:43:54.709Z,95750.00
2022-11-27T11:46:26.023Z,95747.00
2022-11-27T11:48:53.868Z,95746.59
2022-11-27T11:51:40.529Z,95737.66
2022-11-27T11:54:21.731Z,95737.19
2022-11-27T11:56:52.521Z,95735.13
2022-11-27T12:00:02.822Z,95732.53
2022-11-27T12:02:40.837Z,95725.00
2022-11-27T12:05:13.427Z,95726.50
2022-11-27T12:07:52.687Z,95724.34
2022-11-27T12:10:24.526Z,95717.16
2022-11-27T12:13:14.485Z,95708.47
2022-11-27T12:15:49.865Z,95700.66
2022-11-27T12:18:56.301Z,95698.59
2022-11-27T12:21:44.169Z,95697.00
2022-11-27T12:24:35.366Z,95697.25
2022-11-27T12:27:23.161Z,95683.94
2022-11-27T12:29:49.757Z,95685.72
2022-11-27T12:32:28.625Z,95678.34
2022-11-27T12:35:13.657Z,95675.50
2022-11-27T12:37:43.185Z,95672.72
2022-11-27T12:40:24.161Z,95668.69
2022-11-27T12:43:04.385Z,95663.75
2022-11-27T12:45:40.899Z,95662.28
2022-11-27T12:48:25.607Z,95655.13
2022-11-27T12:51:00.152Z,95657.31
2022-11-27T12:53:35.060Z,95642.81
2022-11-27T12:56:21.150Z,95639.31
2022-11-27T12:59:02.318Z,95643.31
2022-11-27T13:01:35.081Z,95633.00
2022-11-27T13:04:11.606Z,95642.97
2022-11-27T13:07:08.102Z,95639.50
2022-11-27T13:09:42.417Z,95631.31
2022-11-27T13:12:16.606Z,95628.53
2022-11-27T13:14:52.435Z,95633.50
2022-11-27T13:17:19.619Z,95635.69
2022-11-27T13:19:49.267Z,95638.22
2022-11-27T13:22:34.738Z,95640.56
2022-11-27T13:25:02.219Z,95639.56
2022-11-27T13:27:32.511Z,95635.53
2022-11-27T13:30:03.137Z,95630.50
2022-11-27T13:32:57.312Z,95614.72
2022-11-27T13:35:43.303Z,95614.41
2022-11-27T13:38:33.369Z,95611.16
2022-11-27T13:41:05.449Z,95600.94
2022-11-27T13:43:42.499Z,95599.00
2022-11-27T13:46:18.370Z,95599.72
2022-11-27T13:48:57.549Z,95603.03
2022-11-27T13:51:36.852Z,95596.53
2022-11-27T13:54:08.579Z,95590.06
2022-11-27T13:56:35.301Z,95598.81
2022-11-27T13:59:22.494Z,95604.75
2022-11-27T14:02:06.217Z,95600.25
2022-11-27T14:04:34.222Z,95599.19
2022-11-27T14:07:06.277Z,95603.00
2022-11-27T14:09:40.629Z,95590.59
2022-11-27T14:12:18.369Z,95594.34
2022-11-27T14:14:56.674Z,95583.53
2022-11-27T14:17:45.877Z,95579.56
2022-11-27T14:20:18.445Z,95576.84
2022-11-27T14:23:10.071Z,95582.09
2022-11-27T14:25:36.438Z,95590.16
2022-11-27T14:28:14.936Z,95586.00
2022-11-27T14:30:47.504Z,95577.50
2022-11-27T14:33:24.379Z,95576.06
2022-11-27T14:35:55.287Z,95577.91
2022-11-27T14:38:22.909Z,95579.47
2022-11-27T14:40:53.163Z,95579.66
2022-11-27T14:43:26.221Z,95576.41
2022-11-27T14:45:55.964Z,95565.41
2022-11-27T14:48:25.877Z,95568.56
2022-11-27T14:50:54.730Z,95569.59
2022-11-27T14:53:24.671Z,95570.09
2022-11-27T14:55:56.283Z,95564.28
2022-11-27T14:58:24.480Z,95569.88
2022-11-27T15:00:55.263Z,95564.78
2022-11-27T15:03:22.216Z,95562.69
2022-11-27T15:06:07.533Z,95571.28
2022-11-27T15:08:37.683Z,95559.72
2022-11-27T15:11:05.742Z,95560.19
2022-11-27T15:13:35.212Z,95557.00
2022-11-27T15:16:14.104Z,95556.81
2022-11-27T15:18:41.721Z,95560.75
2022-11-27T15:21:16.503Z,95562.81
2022-11-27T15:23:50.495Z,95561.31
2022-11-27T15:26:29.365Z,95555.56
2022-11-27T15:28:58.726Z,95549.13
2022-11-27T15:31:28.448Z,95550.22
2022-11-27T15:34:13.720Z,95543.69
2022-11-27T15:36:43.217Z,95541.97
2022-11-27T15:39:33.361Z,95539.09
2022-11-27T15:42:02.555Z,95542.56
2022-11-27T15:44:32.256Z,95541.16
2022-11-27T15:47:02.175Z,95547.09
2022-11-27T15:49:29.369Z,95543.00
2022-11-27T15:51:57.000Z,95538.59
2022-11-27T15:54:24.244Z,95535.53
2022-11-27T15:56:51.155Z,95529.09
2022-11-27T15:59:20.418Z,95523.22
2022-11-27T16:01:47.897Z,95528.56
2022-11-27T16:04:14.576Z,95519.59
2022-11-27T16:06:41.219Z,95514.31
2022-11-27T16:09:07.894Z,95511.16
2022-11-27T16:11:34.738Z,95505.22
2022-11-27T16:14:01.515Z,95501.25
2022-11-27T16:16:28.218Z,95493.69
2022-11-27T16:19:00.623Z,95505.53
2022-11-27T16:21:29.835Z,95496.34
2022-11-27T16:24:01.910Z,95486.41
2022-11-27T16:26:29.234Z,95486.78
2022-11-27T16:28:56.133Z,95487.41
2022-11-27T16:31:24.324Z,95478.56
2022-11-27T16:33:51.585Z,95477.56
2022-11-27T16:36:21.544Z,95469.13
2022-11-27T16:38:48.888Z,95464.59
2022-11-27T16:41:17.845Z,95457.31
2022-11-27T16:43:47.405Z,95449.09
2022-11-27T16:46:19.096Z,95436.81
2022-11-27T16:48:48.945Z,95428.94
2022-11-27T16:51:28.961Z,95432.47
2022-11-27T16:53:57.962Z,95428.53
2022-11-27T16:56:26.864Z,95421.44
2022-11-27T16:58:59.393Z,95420.69
2022-11-27T17:01:31.190Z,95411.34
2022-11-27T17:03:58.181Z,95414.97
2022-11-27T17:06:27.206Z,95404.06
2022-11-27T17:08:54.948Z,95399.81
2022-11-27T17:11:24.856Z,95390.53
2022-11-27T17:13:52.773Z,95386.72
2022-11-27T17:16:20.141Z,95380.59
2022-11-27T17:18:47.410Z,95383.34
2022-11-27T17:21:21.353Z,95378.44
2022-11-27T17:23:47.936Z,95385.13
2022-11-27T17:26:18.390Z,95390.50
2022-11-27T17:28:45.460Z,95389.50
2022-11-27T17:31:18.499Z,95388.13
2022-11-27T17:33:45.774Z,95386.53
2022-11-27T17:36:13.523Z,95386.72
2022-11-27T17:38:40.235Z,95380.66
2022-11-27T17:41:10.075Z,95377.47
2022-11-27T17:43:38.064Z,95385.09
2022-11-27T17:46:10.073Z,95382.97
2022-11-27T17:48:39.006Z,95387.56
2022-11-27T17:51:07.063Z,95378.97
2022-11-27T17:53:34.593Z,95375.75
2022-11-27T17:56:08.242Z,95373.22
2022-11-27T17:58:35.466Z,95370.84
2022-11-27T18:01:02.914Z,95364.56
2022-11-27T18:03:29.750Z,95360.50
2022-11-27T18:05:56.899Z,95360.16
2022-11-27T18:08:24.053Z,95361.81
2022-11-27T18:10:50.749Z,95352.94
2022-11-27T18:13:18.459Z,95346.31
2022-11-27T18:15:45.061Z,95342.31
2022-11-27T18:18:11.674Z,95338.78
2022-11-27T18:20:38.276Z,95339.47
2022-11-27T18:23:05.116Z,95335.53
2022-11-27T18:25:31.949Z,95335.06
2022-11-27T18:27:58.767Z,95334.06
2022-11-27T18:30:25.709Z,95329.00
2022-11-27T18:32:52.327Z,95323.75
2022-11-27T18:35:18.911Z,95324.75
2022-11-27T18:37:45.492Z,95317.19
2022-11-27T18:40:15.331Z,95314.34
2022-11-27T18:42:41.966Z,95317.16
2022-11-27T18:45:25.340Z,95314.41
2022-11-27T18:47:55.425Z,95315.41
2022-11-27T18:50:26.841Z,95309.25
2022-11-27T18:52:56.490Z,95309.25
2022-11-27T18:55:23.230Z,95306.72
2022-11-27T18:57:49.812Z,95306.72
2022-11-27T19:00:17.377Z,95294.34
2022-11-27T19:02:44.145Z,95283.31
2022-11-27T19:05:10.785Z,95287.31
2022-11-27T19:07:37.529Z,95283.22
2022-11-27T19:10:04.705Z,95281.44
2022-11-27T19:12:31.322Z,95288.41
2022-11-27T19:14:57.933Z,95288.94
2022-11-27T19:17:28.003Z,95290.84
2022-11-27T19:19:59.758Z,95285.34
2022-11-27T19:22:26.446Z,95287.88
2022-11-27T19:24:55.681Z,95280.25
2022-11-27T19:27:22.658Z,95278.34
2022-11-27T19:29:49.754Z,95273.66
2022-11-27T19:32:16.771Z,95269.59
2022-11-27T19:34:43.714Z,95272.50
2022-11-27T19:37:11.189Z,95278.03
2022-11-27T19:39:38.228Z,95263.81
2022-11-27T19:42:05.345Z,95260.34
2022-11-27T19:44:32.000Z,95260.19
2022-11-27T19:46:58.893Z,95260.75
2022-11-27T19:49:26.075Z,95255.69
2022-11-27T19:51:52.724Z,95253.78
2022-11-27T19:54:20.549Z,95243.13
2022-11-27T19:56:48.499Z,95244.38
2022-11-27T19:59:15.182Z,95238.56
2022-11-27T20:01:42.337Z,95234.53
2022-11-27T20:04:15.060Z,95231.81
2022-11-27T20:06:42.939Z,95232.88
2022-11-27T20:09:10.741Z,95229.19
2022-11-27T20:11:39.318Z,95225.91
2022-11-27T20:14:06.650Z,95216.16
2022-11-27T20:16:34.254Z,95227.81
2022-11-27T20:19:05.234Z,95220.13
2022-11-27T20:21:34.157Z,95217.59
2022-11-27T20:24:02.082Z,95216.44
2022-11-27T20:26:30.504Z,95219.66
2022-11-27T20:28:58.778Z,95212.34
2022-11-27T20:31:29.132Z,95204.00
2022-11-27T20:33:58.723Z,95193.94
2022-11-27T20:36:26.007Z,95183.69
2022-11-27T20:38:55.435Z,95184.03
2022-11-27T20:41:23.878Z,95181.16
2022-11-27T20:43:55.455Z,95188.53
2022-11-27T20:46:23.140Z,95180.09
2022-11-27T20:48:51.506Z,95176.28
2022-11-27T20:51:21.008Z,95174.72
2022-11-27T20:53:48.721Z,95165.66
2022-11-27T20:56:17.215Z,95166.47
2022-11-27T20:58:45.327Z,95162.78
2022-11-27T21:01:14.938Z,95164.75
2022-11-27T21:03:42.845Z,95149.63
2022-11-27T21:06:09.669Z,95142.84
2022-11-27T21:08:36.738Z,95143.19
2022-11-27T21:11:15.774Z,95139.50
2022-11-27T21:13:44.755Z,95137.22
2022-11-27T21:16:13.832Z,95133.94
2022-11-27T21:18:40.687Z,95130.31
2022-11-27T21:21:09.631Z,95130.19
2022-11-27T21:23:40.928Z,95133.59
2022-11-27T21:26:09.384Z,95134.50
2022-11-27T21:28:35.980Z,95127.09
2022-11-27T21:31:09.770Z,95120.91
2022-11-27T21:33:37.097Z,95118.06
2022-11-27T21:36:04.773Z,95122.56
2022-11-27T21:38:32.540Z,95115.19
2022-11-27T21:40:59.107Z,95104.19
2022-11-27T21:43:25.925Z,95105.78
2022-11-27T21:45:52.565Z,95105.16
2022-11-27T21:48:19.531Z,95108.88
2022-11-27T21:50:46.473Z,95109.25
2022-11-27T21:53:13.059Z,95108.50
2022-11-27T21:55:43.209Z,95112.06
2022-11-27T21:58:10.180Z,95109.06
2022-11-27T22:00:37.169Z,95102.09
2022-11-27T22:03:03.803Z,95105.06
2022-11-27T22:05:30.675Z,95098.31
2022-11-27T22:07:57.288Z,95089.75
2022-11-27T22:10:23.939Z,95075.44
2022-11-27T22:12:50.621Z,95079.59
2022-11-27T22:15:17.262Z,95071.00
2022-11-27T22:17:43.890Z,95063.97
2022-11-27T22:20:11.147Z,95067.75
2022-11-27T22:22:37.736Z,95058.25
2022-11-27T22:25:05.317Z,95061.59
2022-11-27T22:27:32.083Z,95067.31
2022-11-27T22:29:58.748Z,95053.81
2022-11-27T22:32:25.397Z,95050.75
2022-11-27T22:34:52.133Z,95046.25
2022-11-27T22:37:18.710Z,95047.31
2022-11-27T22:39:45.344Z,95043.22
2022-11-27T22:42:12.350Z,95040.69
2022-11-27T22:44:39.410Z,95037.19
2022-11-27T22:47:06.031Z,95037.81
2022-11-27T22:49:32.638Z,95030.56
2022-11-27T22:51:59.369Z,95033.28
2022-11-27T22:54:26.009Z,95031.38
2022-11-27T22:56:54.193Z,95029.72
2022-11-27T22:59:36.091Z,95026.66
2022-11-27T23:02:06.620Z,95027.72
2022-11-27T23:04:34.336Z,95032.69
2022-11-27T23:07:01.844Z,95025.19
2022-11-27T23:09:29.154Z,95025.03
2022-11-27T23:11:56.916Z,95025.66
2022-11-27T23:14:24.630Z,95029.19
2022-11-27T23:16:51.278Z,95029.63
2022-11-27T23:19:17.883Z,95029.13
2022-11-27T23:21:44.692Z,95034.03
2022-11-27T23:24:14.060Z,95033.41
2022-11-27T23:26:40.693Z,95028.69
2022-11-27T23:29:07.609Z,95034.78
2022-11-27T23:31:35.546Z,95026.34
2022-11-27T23:34:13.498Z,95018.97
2022-11-27T23:36:40.329Z,95027.31
2022-11-27T23:39:08.698Z,95020.28
2022-11-27T23:41:35.328Z,95013.75
2022-11-27T23:44:02.245Z,95014.44
2022-11-27T23:46:29.980Z,95016.56
2022-11-27T23:48:58.366Z,95014.41
2022-11-27T23:51:27.748Z,95010.22
2022-11-27T23:53:54.649Z,95002.69
2022-11-27T23:56:26.154Z,95007.97
2022-11-27T23:58:55.154Z,95002.22
